Time;durP1;ratioP1;P1;durP2;ratioP2;P2;SDS_P1;SDS_P2;PMS_P1;PMS_P2;Temp;Humidity;BMP_temperature;BMP_pressure;BME280_temperature;BME280_humidity;BME280_pressure;Samples;Min_cycle;Max_cycle;Signal;HPM_P1;HPM_P2
2022/07/20 00:00:49;;;;;;;13.10;6.13;;;19.60;83.50;;;;;;5006632;28;20038;-60
2022/07/20 00:03:15;;;;;;;10.95;5.75;;;19.50;84.10;;;;;;5005111;28;20026;-60
2022/07/20 00:05:42;;;;;;;13.38;5.43;;;19.50;84.50;;;;;;5007312;28;20034;-61
2022/07/20 00:08:09;;;;;;;10.35;5.60;;;19.50;84.40;;;;;;5006666;28;20057;-61
2022/07/20 00:13:20;;;;;;;24.05;5.75;;;19.40;84.70;;;;;;5008554;28;20041;-60
2022/07/20 00:15:46;;;;;;;9.85;5.45;;;19.40;83.90;;;;;;5008633;28;20057;-60
2022/07/20 00:18:12;;;;;;;10.40;5.93;;;19.30;84.60;;;;;;5008491;28;20066;-60
2022/07/20 00:20:38;;;;;;;14.07;5.90;;;19.20;85.30;;;;;;4984088;28;20040;-60
2022/07/20 00:23:04;;;;;;;11.38;5.53;;;19.20;85.30;;;;;;5004458;28;20039;-60
2022/07/20 00:25:30;;;;;;;9.02;5.60;;;19.20;84.70;;;;;;5002510;28;20053;-60
2022/07/20 00:27:56;;;;;;;19.35;5.40;;;19.20;83.20;;;;;;5006648;28;20054;-60
2022/07/20 00:30:22;;;;;;;17.35;6.30;;;19.30;81.50;;;;;;5001107;28;20108;-60
2022/07/20 00:32:48;;;;;;;11.05;5.47;;;19.40;83.00;;;;;;5006972;28;20045;-60
2022/07/20 00:35:15;;;;;;;11.68;5.30;;;19.40;82.90;;;;;;5005670;28;20034;-60
2022/07/20 00:37:42;;;;;;;19.95;5.38;;;19.40;83.10;;;;;;4998725;28;20082;-60
2022/07/20 00:40:10;;;;;;;10.85;4.80;;;19.50;81.30;;;;;;5002891;28;20125;-60
2022/07/20 00:42:36;;;;;;;13.77;5.43;;;19.60;80.80;;;;;;5003990;28;20627;-60
2022/07/20 00:45:07;;;;;;;9.95;5.35;;;19.70;81.80;;;;;;5004288;28;20048;-60
2022/07/20 00:47:33;;;;;;;10.73;5.78;;;19.50;83.00;;;;;;5007607;28;20100;-60
2022/07/20 00:49:58;;;;;;;11.77;5.72;;;19.40;84.50;;;;;;4987079;28;20050;-61
2022/07/20 00:52:24;;;;;;;13.00;5.75;;;19.30;83.40;;;;;;5005633;28;20106;-60
2022/07/20 00:54:53;;;;;;;12.93;6.00;;;19.30;83.50;;;;;;5006561;28;20030;-61
2022/07/20 00:57:20;;;;;;;11.57;5.78;;;19.30;83.50;;;;;;5005486;28;20029;-61
2022/07/20 00:59:45;;;;;;;8.65;5.55;;;19.30;83.10;;;;;;5000743;28;20053;-61
2022/07/20 01:02:11;;;;;;;9.35;5.30;;;19.50;82.10;;;;;;5004441;28;20484;-61
2022/07/20 01:04:38;;;;;;;12.10;4.90;;;19.60;81.50;;;;;;5004145;28;20042;-60
2022/07/20 01:07:04;;;;;;;11.50;4.95;;;19.70;81.40;;;;;;5003182;28;20038;-60
2022/07/20 01:09:30;;;;;;;13.00;5.30;;;19.60;81.50;;;;;;5002708;28;20041;-61
2022/07/20 01:11:56;;;;;;;14.55;5.63;;;19.80;80.80;;;;;;5008188;28;20482;-60
2022/07/20 01:14:21;;;;;;;9.18;4.95;;;19.70;82.30;;;;;;5002296;28;20061;-60
2022/07/20 01:16:47;;;;;;;12.13;6.15;;;19.70;82.10;;;;;;5002220;28;20030;-60
2022/07/20 01:19:13;;;;;;;10.48;6.07;;;19.70;82.60;;;;;;5003463;28;20040;-61
2022/07/20 01:21:41;;;;;;;12.63;6.18;;;19.40;84.90;;;;;;5003513;28;20040;-60
2022/07/20 01:24:16;;;;;;;11.20;6.00;;;19.10;86.20;;;;;;5008501;28;20091;-60
2022/07/20 01:26:44;;;;;;;14.23;6.13;;;19.10;87.10;;;;;;5003724;28;20135;-60
2022/07/20 01:29:10;;;;;;;13.10;6.78;;;18.90;88.60;;;;;;5002400;28;20337;-61
2022/07/20 01:31:36;;;;;;;12.35;6.00;;;18.70;89.90;;;;;;5001338;28;20036;-61
2022/07/20 01:34:02;;;;;;;11.77;5.93;;;18.70;89.70;;;;;;5003040;28;20030;-61
2022/07/20 01:36:28;;;;;;;12.00;5.60;;;18.70;89.20;;;;;;5002857;28;20072;-60
2022/07/20 01:38:53;;;;;;;15.00;5.43;;;18.60;90.10;;;;;;5003535;28;20120;-60
2022/07/20 01:41:19;;;;;;;13.13;5.97;;;18.60;89.20;;;;;;5002589;28;20029;-60
2022/07/20 01:43:45;;;;;;;13.73;6.18;;;18.70;89.80;;;;;;4999051;28;20038;-60
2022/07/20 01:46:11;;;;;;;9.60;5.50;;;18.60;89.50;;;;;;5005329;28;20034;-61
2022/07/20 01:48:37;;;;;;;12.00;5.55;;;18.60;90.30;;;;;;4999324;28;20050;-60
2022/07/20 01:51:03;;;;;;;13.20;6.15;;;18.50;90.20;;;;;;4999452;28;20499;-61
2022/07/20 01:53:29;;;;;;;10.90;6.40;;;18.40;90.40;;;;;;4999919;28;20026;-60
2022/07/20 01:55:55;;;;;;;12.98;5.90;;;18.40;91.00;;;;;;5004464;28;20139;-60
2022/07/20 01:58:21;;;;;;;12.02;6.03;;;18.30;91.10;;;;;;4999614;28;20030;-61
2022/07/20 02:00:47;;;;;;;11.25;5.90;;;18.20;91.60;;;;;;4999187;28;20033;-60
2022/07/20 02:03:13;;;;;;;14.23;6.78;;;18.10;91.70;;;;;;4980154;28;20088;-60
2022/07/20 02:05:39;;;;;;;11.73;5.90;;;17.90;92.30;;;;;;5000232;28;20038;-60
2022/07/20 02:08:04;;;;;;;12.90;6.07;;;17.90;92.50;;;;;;5000474;28;20101;-60
2022/07/20 02:10:31;;;;;;;12.70;6.20;;;17.90;92.80;;;;;;5005186;28;20400;-60
2022/07/20 02:12:56;;;;;;;15.43;5.97;;;17.90;92.90;;;;;;5000349;28;21873;-60
2022/07/20 02:18:07;;;;;;;12.20;5.97;;;18.00;93.20;;;;;;5008418;28;20361;-60
2022/07/20 02:20:33;;;;;;;14.77;5.88;;;17.90;93.70;;;;;;5004076;28;20750;-60
2022/07/20 02:23:00;;;;;;;13.75;5.75;;;17.90;93.80;;;;;;5008752;28;20540;-60
2022/07/20 02:25:25;;;;;;;12.32;6.30;;;17.90;93.60;;;;;;5001719;28;20057;-60
2022/07/20 02:27:51;;;;;;;15.15;6.47;;;17.80;94.30;;;;;;5005359;28;20405;-60
2022/07/20 02:30:16;;;;;;;13.25;5.80;;;17.70;94.90;;;;;;5007732;28;20033;-60
2022/07/20 02:32:42;;;;;;;15.52;5.80;;;17.50;95.60;;;;;;5003243;28;20103;-61
2022/07/20 02:35:08;;;;;;;15.27;6.70;;;17.40;95.90;;;;;;5012766;28;20084;-61
2022/07/20 02:37:34;;;;;;;11.63;5.55;;;17.40;95.60;;;;;;5011944;28;20030;-61
2022/07/20 02:39:59;;;;;;;12.73;5.60;;;17.50;95.30;;;;;;5008430;28;20080;-60
2022/07/20 02:42:25;;;;;;;13.98;6.20;;;17.60;94.90;;;;;;5010288;28;20034;-60
2022/07/20 02:44:51;;;;;;;12.68;5.45;;;17.70;94.90;;;;;;5005782;28;20069;-60
2022/07/20 02:47:16;;;;;;;11.30;5.85;;;17.80;94.30;;;;;;5007492;28;21921;-60
2022/07/20 02:49:42;;;;;;;11.65;5.40;;;18.00;94.20;;;;;;5005045;28;20052;-61
2022/07/20 02:52:08;;;;;;;8.52;5.45;;;18.10;93.80;;;;;;5008514;28;20034;-60
2022/07/20 02:54:33;;;;;;;12.90;5.45;;;18.10;93.50;;;;;;5008895;28;20034;-60
2022/07/20 02:56:59;;;;;;;10.35;5.13;;;18.10;93.40;;;;;;5012478;28;20041;-60
2022/07/20 02:59:25;;;;;;;14.38;6.20;;;18.20;93.60;;;;;;5003629;28;20033;-60
2022/07/20 03:01:51;;;;;;;10.23;5.72;;;18.10;94.50;;;;;;5010339;28;20030;-60
2022/07/20 03:04:17;;;;;;;13.27;5.72;;;18.10;94.70;;;;;;5012157;28;20503;-60
2022/07/20 03:06:42;;;;;;;13.90;6.00;;;18.00;94.80;;;;;;5007502;28;20034;-60
2022/07/20 03:09:08;;;;;;;11.70;6.22;;;17.70;95.40;;;;;;5012036;28;20029;-60
2022/07/20 03:11:34;;;;;;;10.63;6.10;;;17.50;96.60;;;;;;5011394;28;20058;-60
2022/07/20 03:14:00;;;;;;;11.85;5.97;;;17.40;97.70;;;;;;5012329;28;20033;-60
2022/07/20 03:16:25;;;;;;;13.75;6.45;;;17.30;97.90;;;;;;5012103;28;20103;-60
2022/07/20 03:18:51;;;;;;;13.82;6.80;;;17.30;98.10;;;;;;5012190;28;20100;-60
2022/07/20 03:21:17;;;;;;;16.48;6.18;;;17.00;99.20;;;;;;5010985;28;20034;-60
2022/07/20 03:23:42;;;;;;;10.98;6.00;;;16.80;99.90;;;;;;4992385;28;20034;-60
2022/07/20 03:26:08;;;;;;;8.85;5.65;;;16.80;99.90;;;;;;5004807;28;20038;-60
2022/07/20 03:28:33;;;;;;;11.70;5.13;;;16.90;99.90;;;;;;5011680;28;20357;-60
2022/07/20 03:30:59;;;;;;;11.70;5.63;;;17.10;99.90;;;;;;5012004;28;20116;-60
2022/07/20 03:33:25;;;;;;;13.13;4.82;;;17.20;99.20;;;;;;5011789;28;20029;-60
2022/07/20 03:35:50;;;;;;;10.63;6.03;;;17.40;98.70;;;;;;5011389;28;20109;-60
2022/07/20 03:38:16;;;;;;;8.75;5.75;;;17.40;99.60;;;;;;5011136;28;20041;-60
2022/07/20 03:40:42;;;;;;;10.40;5.55;;;17.20;99.90;;;;;;5011081;28;20030;-60
2022/07/20 03:43:08;;;;;;;12.07;5.90;;;16.90;99.90;;;;;;5011398;28;20029;-60
2022/07/20 03:45:33;;;;;;;13.63;5.88;;;16.80;99.90;;;;;;5011083;28;20038;-60
2022/07/20 03:47:59;;;;;;;12.52;6.30;;;16.80;99.90;;;;;;5010436;28;20030;-60
2022/07/20 03:50:25;;;;;;;11.80;6.50;;;16.60;99.90;;;;;;5009261;28;20357;-60
2022/07/20 03:52:51;;;;;;;11.88;6.38;;;16.50;99.90;;;;;;5001936;28;20018;-60
2022/07/20 03:55:17;;;;;;;13.70;6.55;;;16.40;99.90;;;;;;5006180;28;20097;-60
2022/07/20 03:57:43;;;;;;;13.05;6.03;;;16.40;99.90;;;;;;4979164;28;20038;-60
2022/07/20 04:00:09;;;;;;;14.18;6.25;;;16.30;99.90;;;;;;5008349;28;20048;-60
2022/07/20 04:02:35;;;;;;;14.45;6.40;;;16.30;99.90;;;;;;5005789;28;20034;-60
2022/07/20 04:05:01;;;;;;;13.82;6.82;;;16.40;99.90;;;;;;4974361;28;20081;-61
2022/07/20 04:07:26;;;;;;;15.82;6.20;;;16.40;99.90;;;;;;4991735;28;20039;-60
2022/07/20 04:09:52;;;;;;;15.27;6.32;;;16.40;99.90;;;;;;4991099;28;20676;-60
2022/07/20 04:12:20;;;;;;;12.27;6.15;;;16.40;99.90;;;;;;4991420;28;20397;-60
2022/07/20 04:14:47;;;;;;;10.88;6.20;;;16.30;99.90;;;;;;5003825;28;20444;-60
2022/07/20 04:17:13;;;;;;;11.25;6.35;;;16.40;99.90;;;;;;5008822;28;20030;-60
2022/07/20 04:19:39;;;;;;;9.77;6.30;;;16.40;99.90;;;;;;5010371;28;20457;-61
2022/07/20 04:22:05;;;;;;;14.73;6.22;;;16.60;99.90;;;;;;5011172;28;20068;-60
2022/07/20 04:24:31;;;;;;;15.00;6.18;;;16.60;99.90;;;;;;5010102;28;20376;-60
2022/07/20 04:26:57;;;;;;;13.30;7.00;;;16.70;99.90;;;;;;5009369;28;20068;-60
2022/07/20 04:29:22;;;;;;;14.02;6.50;;;16.90;99.90;;;;;;5006174;28;20121;-60
2022/07/20 04:31:49;;;;;;;12.55;6.35;;;16.70;99.90;;;;;;5001769;28;20030;-60
2022/07/20 04:34:15;;;;;;;12.38;6.70;;;16.70;99.90;;;;;;5010232;28;20026;-60
2022/07/20 04:36:40;;;;;;;13.20;6.97;;;16.40;99.90;;;;;;5010108;28;20071;-60
2022/07/20 04:39:06;;;;;;;11.23;5.95;;;16.40;99.90;;;;;;5010551;28;20037;-60
2022/07/20 04:41:31;;;;;;;9.52;5.90;;;16.60;99.90;;;;;;5001869;28;20473;-60
2022/07/20 04:43:57;;;;;;;8.60;5.82;;;16.90;99.90;;;;;;5006830;28;20431;-60
2022/07/20 04:46:23;;;;;;;16.02;5.70;;;17.20;99.90;;;;;;5010727;28;20216;-60
2022/07/20 04:48:48;;;;;;;13.43;5.80;;;17.40;99.90;;;;;;5010074;28;20028;-60
2022/07/20 04:51:14;;;;;;;12.52;5.95;;;17.60;99.90;;;;;;5010733;28;20058;-60
2022/07/20 04:53:40;;;;;;;11.05;6.40;;;17.80;99.90;;;;;;5009638;28;20030;-60
2022/07/20 04:56:06;;;;;;;15.85;5.88;;;17.90;99.90;;;;;;5009675;28;20026;-61
2022/07/20 04:58:32;;;;;;;13.05;6.43;;;18.20;99.90;;;;;;5010244;28;20045;-60
2022/07/20 05:00:58;;;;;;;12.05;6.32;;;18.40;99.90;;;;;;5010491;28;20029;-60
2022/07/20 05:03:24;;;;;;;11.73;6.18;;;18.50;99.90;;;;;;5010432;28;20026;-60
2022/07/20 05:05:50;;;;;;;12.93;6.43;;;18.60;99.90;;;;;;5008693;28;20034;-60
2022/07/20 05:08:16;;;;;;;17.20;7.03;;;18.90;99.90;;;;;;5006515;28;20030;-60
2022/07/20 05:10:41;;;;;;;18.13;6.30;;;18.80;99.90;;;;;;5006194;28;20036;-60
2022/07/20 05:13:07;;;;;;;13.52;6.68;;;18.90;99.90;;;;;;5007909;28;20396;-60
2022/07/20 05:15:33;;;;;;;10.98;6.75;;;18.90;99.90;;;;;;5008041;28;20511;-60
2022/07/20 05:17:58;;;;;;;13.75;6.35;;;19.00;99.90;;;;;;5006274;28;20021;-60
2022/07/20 05:20:24;;;;;;;12.52;6.68;;;19.00;99.90;;;;;;5005889;28;20477;-60
2022/07/20 05:22:50;;;;;;;11.73;6.43;;;19.20;99.90;;;;;;5008369;28;21819;-60
2022/07/20 05:25:15;;;;;;;10.45;6.70;;;19.40;99.90;;;;;;5007892;28;20038;-60
2022/07/20 05:27:41;;;;;;;16.63;6.88;;;19.60;99.90;;;;;;5001448;28;20077;-60
2022/07/20 05:30:07;;;;;;;14.52;6.97;;;19.70;99.90;;;;;;5006131;28;20048;-60
2022/07/20 05:32:34;;;;;;;11.00;6.30;;;19.70;99.90;;;;;;5009763;28;20036;-60
2022/07/20 05:34:59;;;;;;;12.15;6.20;;;19.50;99.90;;;;;;5008807;28;20022;-60
2022/07/20 05:37:25;;;;;;;11.48;5.72;;;19.50;99.90;;;;;;5009802;28;20423;-60
2022/07/20 05:39:51;;;;;;;14.93;6.10;;;19.60;99.90;;;;;;5008259;28;20038;-60
2022/07/20 05:42:17;;;;;;;16.05;6.90;;;20.00;99.90;;;;;;5008482;28;20038;-60
2022/07/20 05:44:42;;;;;;;11.65;6.13;;;20.10;99.90;;;;;;5007270;28;20045;-60
2022/07/20 05:47:09;;;;;;;11.65;6.28;;;20.10;99.90;;;;;;5006368;28;20101;-60
2022/07/20 05:49:36;;;;;;;10.18;5.93;;;20.30;99.90;;;;;;5008449;28;20022;-60
2022/07/20 05:52:02;;;;;;;11.95;6.07;;;20.60;99.90;;;;;;4989656;28;20030;-60
2022/07/20 05:54:28;;;;;;;12.85;6.00;;;21.00;99.90;;;;;;5008978;28;20044;-60
2022/07/20 05:56:54;;;;;;;10.43;6.20;;;21.50;99.90;;;;;;5006280;28;20034;-60
2022/07/20 05:59:20;;;;;;;14.55;6.50;;;21.90;99.90;;;;;;5005690;28;20030;-61
2022/07/20 06:01:45;;;;;;;9.77;5.60;;;22.10;99.90;;;;;;5004470;28;20034;-61
2022/07/20 06:04:12;;;;;;;10.45;5.55;;;22.20;99.90;;;;;;5009508;28;20054;-61
2022/07/20 06:06:38;;;;;;;9.70;6.00;;;22.30;99.90;;;;;;4981247;28;20034;-61
2022/07/20 06:09:05;;;;;;;11.05;6.88;;;22.40;99.70;;;;;;5005785;28;20037;-61
2022/07/20 06:11:31;;;;;;;10.38;5.68;;;22.70;99.90;;;;;;5009514;28;20022;-61
2022/07/20 06:13:56;;;;;;;12.25;6.55;;;22.90;99.50;;;;;;5006485;28;20298;-61
2022/07/20 06:16:22;;;;;;;10.00;5.60;;;23.00;98.90;;;;;;5008975;28;20136;-61
2022/07/20 06:18:48;;;;;;;8.63;5.22;;;23.10;96.90;;;;;;5006851;28;20025;-61
2022/07/20 06:21:14;;;;;;;9.80;5.28;;;23.30;95.00;;;;;;5006784;28;20148;-61
2022/07/20 06:23:41;;;;;;;11.68;5.32;;;23.50;94.00;;;;;;5007082;28;20037;-61
2022/07/20 06:26:07;;;;;;;9.50;5.00;;;23.70;92.70;;;;;;5005571;28;20058;-60
2022/07/20 06:28:34;;;;;;;8.43;5.20;;;23.90;91.80;;;;;;4989144;28;20042;-61
2022/07/20 06:30:59;;;;;;;14.55;5.22;;;24.10;91.30;;;;;;5005443;28;20139;-61
2022/07/20 06:33:25;;;;;;;11.15;4.82;;;24.30;91.10;;;;;;5003827;28;20085;-61
2022/07/20 06:35:51;;;;;;;9.50;4.78;;;24.50;90.40;;;;;;5007528;28;20037;-61
2022/07/20 06:38:17;;;;;;;11.10;5.10;;;24.70;90.10;;;;;;5009142;28;20034;-61
2022/07/20 06:40:43;;;;;;;13.68;4.65;;;24.90;88.00;;;;;;5008333;28;20394;-61
2022/07/20 06:43:09;;;;;;;9.05;4.90;;;25.00;88.10;;;;;;5007020;28;20030;-61
2022/07/20 06:45:34;;;;;;;10.10;4.88;;;25.20;87.10;;;;;;4995792;28;20030;-61
2022/07/20 06:48:00;;;;;;;8.85;4.30;;;25.40;85.40;;;;;;5003123;28;20026;-61
2022/07/20 06:50:26;;;;;;;10.98;5.10;;;25.50;84.40;;;;;;5009546;28;20037;-61
2022/07/20 06:52:52;;;;;;;11.25;5.13;;;25.70;85.20;;;;;;5008418;28;20109;-61
2022/07/20 06:55:17;;;;;;;7.43;4.88;;;25.90;82.70;;;;;;4991680;28;20084;-61
2022/07/20 06:57:44;;;;;;;14.93;4.93;;;26.10;83.10;;;;;;5008997;28;20065;-61
2022/07/20 07:00:11;;;;;;;14.52;5.05;;;26.30;81.60;;;;;;5012737;28;20030;-61
2022/07/20 07:02:37;;;;;;;9.10;5.18;;;26.40;78.30;;;;;;5012119;28;20033;-61
2022/07/20 07:05:03;;;;;;;10.30;4.70;;;26.50;79.00;;;;;;5001082;28;20045;-61
2022/07/20 07:07:29;;;;;;;13.23;5.03;;;26.60;75.60;;;;;;4992815;28;20476;-61
2022/07/20 07:09:55;;;;;;;9.20;5.18;;;26.70;77.20;;;;;;4992208;28;20061;-61
2022/07/20 07:12:21;;;;;;;7.85;4.57;;;26.90;77.00;;;;;;4992913;28;20058;-61
2022/07/20 07:14:46;;;;;;;11.88;4.47;;;27.10;75.20;;;;;;4991714;28;20494;-61
2022/07/20 07:17:12;;;;;;;15.70;5.57;;;27.10;76.50;;;;;;4993227;28;20037;-61
2022/07/20 07:19:39;;;;;;;16.60;5.13;;;27.40;74.90;;;;;;5001586;28;20041;-61
2022/07/20 07:22:05;;;;;;;10.95;5.20;;;27.50;72.90;;;;;;5011955;28;20030;-62
2022/07/20 07:24:31;;;;;;;10.75;5.07;;;27.50;72.10;;;;;;5012332;28;20080;-62
2022/07/20 07:26:56;;;;;;;9.30;4.80;;;27.50;72.50;;;;;;5011346;28;20556;-61
2022/07/20 07:29:22;;;;;;;12.05;5.15;;;27.60;71.60;;;;;;4994610;28;20092;-62
2022/07/20 07:31:48;;;;;;;12.20;5.25;;;27.90;73.40;;;;;;5010420;28;20448;-61
2022/07/20 07:34:14;;;;;;;10.55;4.82;;;28.20;71.80;;;;;;5012227;28;20029;-62
2022/07/20 07:36:39;;;;;;;14.38;5.10;;;28.40;69.70;;;;;;5011253;28;20044;-61
2022/07/20 07:39:05;;;;;;;18.38;5.45;;;28.60;68.80;;;;;;5011282;28;20030;-61
2022/07/20 07:41:31;;;;;;;21.67;5.75;;;28.70;68.60;;;;;;5009523;28;20543;-62
2022/07/20 07:43:56;;;;;;;13.70;5.10;;;28.80;67.60;;;;;;5009853;28;20045;-62
2022/07/20 07:46:22;;;;;;;11.68;4.90;;;28.90;66.00;;;;;;5005438;28;20444;-62
2022/07/20 07:48:48;;;;;;;13.40;5.80;;;28.80;65.30;;;;;;5008420;28;20033;-62
2022/07/20 07:51:14;;;;;;;13.10;5.50;;;28.80;67.90;;;;;;4989293;28;20030;-62
2022/07/20 07:53:39;;;;;;;12.25;5.30;;;28.80;67.40;;;;;;4994475;28;20440;-62
2022/07/20 07:56:05;;;;;;;9.50;5.50;;;28.90;65.10;;;;;;5011076;28;20515;-63
2022/07/20 07:58:31;;;;;;;11.57;5.22;;;28.90;69.50;;;;;;5011418;28;20488;-62
2022/07/20 08:00:56;;;;;;;11.52;5.65;;;29.00;67.50;;;;;;5010773;28;20045;-62
2022/07/20 08:03:22;;;;;;;9.95;5.25;;;29.10;65.80;;;;;;5010671;28;20026;-63
2022/07/20 08:05:48;;;;;;;9.70;5.07;;;29.10;65.30;;;;;;5006963;28;20044;-62
2022/07/20 08:08:16;;;;;;;14.07;5.75;;;29.00;66.90;;;;;;4989411;28;20069;-62
2022/07/20 08:10:43;;;;;;;10.50;5.25;;;29.00;66.80;;;;;;4993931;28;20143;-61
2022/07/20 08:13:09;;;;;;;7.20;5.00;;;29.00;65.50;;;;;;4995409;28;20108;-61
2022/07/20 08:15:35;;;;;;;8.00;5.32;;;29.00;67.00;;;;;;4997682;28;20470;-61
2022/07/20 08:18:01;;;;;;;9.25;5.53;;;29.10;66.40;;;;;;4991826;28;20473;-61
2022/07/20 08:20:27;;;;;;;10.05;4.95;;;29.30;65.40;;;;;;5003305;28;20034;-62
2022/07/20 08:22:54;;;;;;;7.45;5.13;;;29.50;64.70;;;;;;5000379;28;20117;-62
2022/07/20 08:25:20;;;;;;;11.93;5.20;;;29.60;66.10;;;;;;5006145;28;20034;-62
2022/07/20 08:27:46;;;;;;;9.20;5.55;;;29.70;65.30;;;;;;5008556;28;20061;-61
2022/07/20 08:30:12;;;;;;;8.40;5.55;;;29.70;65.00;;;;;;5008028;28;20729;-62
2022/07/20 08:32:38;;;;;;;9.48;5.65;;;29.80;65.10;;;;;;5010742;28;20034;-62
2022/07/20 08:35:04;;;;;;;13.38;5.45;;;29.80;62.00;;;;;;5006097;28;20037;-62
2022/07/20 08:37:30;;;;;;;12.25;5.80;;;29.80;63.10;;;;;;4991044;28;20492;-62
2022/07/20 08:39:56;;;;;;;26.80;6.18;;;29.80;64.10;;;;;;5000591;28;20113;-62
2022/07/20 08:42:22;;;;;;;10.82;5.30;;;29.70;62.90;;;;;;5004525;28;20061;-62
2022/07/20 08:44:48;;;;;;;12.13;5.30;;;29.70;65.40;;;;;;4998741;28;20081;-62
2022/07/20 08:47:15;;;;;;;18.50;6.18;;;29.70;62.70;;;;;;4990838;28;20038;-62
2022/07/20 08:49:45;;;;;;;16.23;5.95;;;29.80;65.00;;;;;;5010483;28;20029;-62
2022/07/20 08:52:11;;;;;;;14.07;5.63;;;30.00;63.50;;;;;;5008291;28;20116;-62
2022/07/20 08:54:37;;;;;;;9.77;5.40;;;30.00;64.90;;;;;;5008510;28;20120;-62
2022/07/20 08:57:10;;;;;;;11.52;5.80;;;30.10;63.60;;;;;;5009345;28;20486;-62
2022/07/20 08:59:36;;;;;;;11.05;5.85;;;30.30;64.10;;;;;;5008225;28;20057;-63
2022/07/20 09:02:05;;;;;;;10.68;5.85;;;30.50;61.00;;;;;;5008942;28;20069;-62
2022/07/20 09:04:31;;;;;;;18.70;6.18;;;30.40;62.20;;;;;;4983900;28;20026;-62
2022/07/20 09:06:57;;;;;;;10.98;5.40;;;30.60;63.40;;;;;;5009045;28;20560;-63
2022/07/20 09:09:23;;;;;;;14.20;5.55;;;30.90;63.60;;;;;;5006715;28;20105;-63
2022/07/20 09:11:50;;;;;;;16.58;5.65;;;31.20;63.90;;;;;;5007936;28;20034;-62
2022/07/20 09:14:54;;;;;;;8.48;5.72;;;31.30;62.10;;;;;;5010296;28;20080;-62
2022/07/20 09:17:22;;;;;;;10.15;5.40;;;31.40;56.80;;;;;;4911353;29;20055;-63
2022/07/20 09:19:56;;;;;;;12.65;6.13;;;31.60;58.80;;;;;;4910601;29;20052;-63
2022/07/20 09:22:48;;;;;;;12.48;6.13;;;31.60;61.40;;;;;;4910147;29;20051;-63
2022/07/20 09:25:15;;;;;;;13.10;5.82;;;31.80;57.60;;;;;;4908173;29;20123;-63
2022/07/20 09:27:42;;;;;;;9.98;5.78;;;31.90;56.00;;;;;;4910622;29;20052;-62
2022/07/20 09:30:17;;;;;;;17.88;6.53;;;31.80;55.10;;;;;;4910189;29;20087;-63
2022/07/20 09:32:59;;;;;;;9.50;6.22;;;31.70;57.20;;;;;;4911124;29;20039;-62
2022/07/20 09:35:33;;;;;;;8.85;6.60;;;32.00;57.40;;;;;;4910930;29;20055;-64
2022/07/20 09:38:04;;;;;;;16.27;6.80;;;32.30;54.10;;;;;;4910053;29;20028;-63
2022/07/20 09:40:45;;;;;;;17.92;6.00;;;32.30;54.00;;;;;;4910853;29;20039;-64
2022/07/20 09:43:32;;;;;;;12.00;6.30;;;32.50;55.80;;;;;;4909926;29;20034;-63
2022/07/20 09:46:15;;;;;;;13.43;6.45;;;32.50;53.40;;;;;;4909974;29;20052;-63
2022/07/20 09:48:42;;;;;;;12.70;6.60;;;32.40;53.30;;;;;;4967416;28;20034;-63
2022/07/20 09:51:27;;;;;;;13.15;6.28;;;32.30;53.50;;;;;;4988774;28;20052;-63
2022/07/20 09:53:55;;;;;;;11.95;6.03;;;32.50;53.40;;;;;;4989382;28;20433;-63
2022/07/20 09:56:22;;;;;;;16.77;6.50;;;32.60;53.20;;;;;;4989991;28;20544;-63
2022/07/20 09:58:51;;;;;;;8.55;5.80;;;32.70;52.00;;;;;;4989923;28;20034;-63
2022/07/20 10:01:28;;;;;;;18.58;6.22;;;32.60;51.00;;;;;;4989784;28;20037;-63
2022/07/20 10:03:55;;;;;;;12.65;6.18;;;32.80;53.30;;;;;;4987983;28;20033;-63
2022/07/20 10:06:23;;;;;;;17.08;6.10;;;33.00;50.30;;;;;;4989982;28;20097;-64
2022/07/20 10:08:49;;;;;;;14.32;6.13;;;33.10;48.90;;;;;;4989869;28;20032;-63
2022/07/20 10:11:17;;;;;;;10.75;6.07;;;33.30;50.70;;;;;;4989544;28;20030;-64
2022/07/20 10:13:44;;;;;;;11.77;6.03;;;33.30;46.20;;;;;;4989984;28;20026;-64
2022/07/20 10:16:28;;;;;;;12.35;5.93;;;33.40;51.00;;;;;;4988267;28;20093;-64
2022/07/20 10:18:54;;;;;;;8.93;5.40;;;33.70;48.50;;;;;;4989092;28;20037;-63
2022/07/20 10:21:41;;;;;;;13.25;5.90;;;33.90;47.70;;;;;;4989846;28;20026;-63
2022/07/20 10:24:22;;;;;;;14.05;5.82;;;33.70;45.90;;;;;;4989029;28;20393;-64
2022/07/20 10:26:49;;;;;;;10.20;5.97;;;33.80;49.80;;;;;;4990868;28;20058;-64
2022/07/20 10:29:28;;;;;;;17.38;6.15;;;33.80;45.60;;;;;;4989037;28;20052;-64
2022/07/20 10:32:22;;;;;;;17.30;6.38;;;34.00;47.70;;;;;;4989025;28;20031;-64
2022/07/20 10:34:51;;;;;;;16.13;6.03;;;34.20;46.10;;;;;;4993656;28;20092;-63
2022/07/20 10:37:38;;;;;;;12.85;6.15;;;34.20;45.50;;;;;;4992842;28;20389;-64
2022/07/20 10:40:08;;;;;;;14.15;5.82;;;34.20;47.00;;;;;;4992914;28;20030;-63
2022/07/20 10:42:39;;;;;;;10.82;5.32;;;34.30;43.40;;;;;;4994593;28;20030;-64
2022/07/20 10:45:11;;;;;;;10.70;5.20;;;34.40;43.10;;;;;;5007023;28;20353;-64
2022/07/20 10:47:55;;;;;;;8.85;5.20;;;34.40;43.80;;;;;;5012822;28;20404;-63
2022/07/20 10:50:22;;;;;;;15.18;5.60;;;34.50;43.60;;;;;;5013136;28;20022;-63
2022/07/20 10:52:49;;;;;;;13.13;6.05;;;34.60;42.60;;;;;;5012940;28;20099;-63
2022/07/20 10:55:36;;;;;;;10.27;6.15;;;34.50;42.80;;;;;;5012237;28;20034;-63
2022/07/20 10:58:07;;;;;;;12.90;5.65;;;34.50;42.20;;;;;;5010760;28;20044;-64
2022/07/20 11:00:39;;;;;;;7.10;5.95;;;34.60;44.00;;;;;;5008550;28;20034;-64
2022/07/20 11:03:12;;;;;;;10.95;5.78;;;34.60;43.40;;;;;;5011902;28;20026;-63
2022/07/20 11:05:38;;;;;;;12.02;5.78;;;34.80;43.80;;;;;;5012617;28;20113;-64
2022/07/20 11:08:06;;;;;;;9.25;6.35;;;35.00;42.50;;;;;;5009509;28;20491;-64
2022/07/20 11:10:32;;;;;;;12.27;5.85;;;35.00;41.20;;;;;;5012405;28;20042;-64
2022/07/20 11:13:05;;;;;;;11.00;5.78;;;35.30;43.40;;;;;;4994074;28;20040;-63
2022/07/20 11:15:40;;;;;;;16.27;5.97;;;35.50;43.30;;;;;;5012514;28;20048;-64
2022/07/20 11:18:08;;;;;;;9.93;6.00;;;35.60;41.10;;;;;;5011633;28;20030;-64
2022/07/20 11:20:35;;;;;;;11.75;6.30;;;35.40;42.10;;;;;;5012249;28;20065;-64
2022/07/20 11:23:02;;;;;;;9.77;5.97;;;35.50;41.00;;;;;;5010140;28;21221;-64
2022/07/20 11:25:48;;;;;;;8.55;5.70;;;35.70;40.80;;;;;;5012149;28;20069;-64
2022/07/20 11:28:17;;;;;;;7.07;5.30;;;35.80;38.40;;;;;;5011494;28;20084;-64
2022/07/20 11:30:43;;;;;;;11.00;5.78;;;36.00;40.00;;;;;;4994520;28;20029;-64
2022/07/20 11:33:10;;;;;;;13.20;6.07;;;36.10;41.40;;;;;;5010053;28;20038;-63
2022/07/20 11:35:36;;;;;;;10.88;6.45;;;35.90;42.20;;;;;;5011834;28;20384;-64
2022/07/20 11:38:02;;;;;;;11.40;6.15;;;35.90;41.20;;;;;;5011233;28;20045;-64
2022/07/20 11:40:28;;;;;;;13.05;6.38;;;36.20;41.20;;;;;;5012089;28;20037;-64
2022/07/20 11:43:13;;;;;;;11.48;6.00;;;36.20;39.60;;;;;;5011837;28;20045;-64
2022/07/20 11:45:39;;;;;;;16.20;6.57;;;36.20;41.40;;;;;;5011784;28;20113;-64
2022/07/20 11:48:22;;;;;;;16.30;6.63;;;36.00;40.50;;;;;;5010357;28;20045;-64
2022/07/20 11:50:48;;;;;;;11.57;6.40;;;36.00;39.90;;;;;;5011900;28;20065;-64
2022/07/20 11:53:35;;;;;;;10.07;6.30;;;35.90;39.40;;;;;;4993092;28;20901;-64
2022/07/20 11:56:05;;;;;;;13.13;5.72;;;36.10;39.10;;;;;;5010761;28;20034;-64
2022/07/20 11:58:34;;;;;;;8.60;5.78;;;36.30;40.70;;;;;;5011683;28;20037;-63
2022/07/20 12:01:02;;;;;;;14.15;6.35;;;36.50;40.00;;;;;;5009992;28;20034;-63
2022/07/20 12:03:32;;;;;;;11.13;6.28;;;36.00;40.40;;;;;;5011442;28;20038;-64
2022/07/20 12:06:04;;;;;;;10.57;5.97;;;35.80;41.20;;;;;;5011054;28;20042;-64
2022/07/20 12:08:30;;;;;;;14.13;6.47;;;36.10;42.60;;;;;;5011558;28;20484;-64
2022/07/20 12:10:56;;;;;;;8.30;5.55;;;36.20;39.70;;;;;;5011279;28;20030;-64
2022/07/20 12:13:22;;;;;;;12.60;6.55;;;36.60;38.60;;;;;;5010806;28;20034;-63
2022/07/20 12:15:57;;;;;;;8.68;6.15;;;36.80;38.80;;;;;;5010770;28;20046;-64
2022/07/20 12:18:47;;;;;;;9.80;6.28;;;36.70;40.40;;;;;;5009271;28;20030;-64
2022/07/20 12:21:20;;;;;;;8.57;5.82;;;36.80;38.70;;;;;;5003400;28;20808;-64
2022/07/20 12:23:52;;;;;;;11.02;5.90;;;36.80;39.10;;;;;;5005694;28;20456;-64
2022/07/20 12:26:25;;;;;;;15.52;6.88;;;36.80;41.40;;;;;;4992377;28;20216;-64
2022/07/20 12:28:52;;;;;;;11.52;6.50;;;37.10;38.40;;;;;;5009610;28;20044;-64
2022/07/20 12:31:20;;;;;;;9.55;6.50;;;37.10;38.20;;;;;;5010070;28;20645;-65
2022/07/20 12:34:14;;;;;;;8.65;6.45;;;37.10;37.60;;;;;;5009262;28;20041;-64
2022/07/20 12:36:45;;;;;;;8.48;6.25;;;36.90;38.70;;;;;;4991206;28;20057;-64
2022/07/20 12:39:14;;;;;;;10.68;6.80;;;37.10;39.30;;;;;;4972905;28;20376;-64
2022/07/20 12:41:41;;;;;;;15.02;6.60;;;37.40;36.70;;;;;;4991317;28;20023;-64
2022/07/20 12:44:28;;;;;;;13.80;6.60;;;37.60;37.90;;;;;;5009663;28;20037;-64
2022/07/20 12:46:55;;;;;;;12.07;6.35;;;37.80;36.50;;;;;;5010666;28;20038;-64